N2XGL-1 Weather Reports


Display with metric or nautical units.
time (UTC)temp
F
wind
direction
speed
MPH
gust
MPH
rain 1hr
in
rain 24hr
in
rain mn
in
humidity
%
barometer
mb
20200809172244 89 135 1.0 5.0 0.00 0.00 0.00 23 1007.0
20200809171339 88 135 2.0 6.0 0.00 0.00 0.00 25 1007.1
20200809170356 87 112 2.0 4.0 0.00 0.00 0.00 30 1007.3
20200809165544 87 112 2.0 6.0 0.00 0.00 0.00 26 1007.2
20200809164650 86 112 3.0 6.0 0.00 0.00 0.00 30 1007.3
20200809163702 85 135 1.0 5.0 0.00 0.00 0.00 35 1007.4
20200809162759 85 135 1.0 3.0 0.00 0.00 0.00 34 1007.5
20200809161921 84 135 2.0 5.0 0.00 0.00 0.00 36 1007.7
20200809161000 83 135 1.0 2.0 0.00 0.00 0.00 32 1007.7
20200809160051 83 135 1.0 3.0 0.00 0.00 0.00 38 1007.7
20200809155228 82 135 1.0 3.0 0.00 0.00 0.00 37 1007.7
20200809154334 80 135 1.0 4.0 0.00 0.00 0.00 35 1007.8
20200809153444 79 180 1.0 3.0 0.00 0.00 0.00 41 1007.9
20200809152444 77 0 0.0 2.0 0.00 0.00 0.00 45 1008.1
20200809151530 76 0 0.0 2.0 0.00 0.00 0.00 44 1008.2
20200809150545 75 0 0.0 1.0 0.00 0.00 0.00 44 1008.3
20200809145619 73 180 1.0 3.0 0.00 0.00 0.00 50 1008.3
20200809144645 71 0 0.0 2.0 0.00 0.00 0.00 56 1008.3
20200809143759 68 0 0.0 3.0 0.00 0.00 0.00 59 1008.3
20200809142759 66 0 0.0 0.0 0.00 0.00 0.00 58 1008.3
20200809141829 65 0 0.0 0.0 0.00 0.00 0.00 59 1008.3
20200809140859 63 0 0.0 2.0 0.00 0.00 0.00 66 1008.4
20200809140000 62 0 0.0 2.0 0.00 0.00 0.00 71 1008.2
20200809135009 61 0 0.0 0.0 0.00 0.00 0.00 70 1008.2
20200809134120 60 0 0.0 2.0 0.00 0.00 0.00 73 1008.2
20200809133230 60 0 0.0 3.0 0.00 0.00 0.00 66 1008.3
20200809132325 59 0 0.0 2.0 0.00 0.00 0.00 58 1008.2
20200809131329 59 0 0.0 2.0 0.00 0.00 0.00 55 1008.3
20200809130349 59 68 1.0 2.0 0.00 0.00 0.00 54 1008.2
20200809125432 59 0 0.0 2.0 0.00 0.00 0.00 49 1008.2
20200809124556 59 0 0.0 1.0 0.00 0.00 0.00 45 1008.1
20200809123724 59 0 0.0 0.0 0.00 0.00 0.00 45 1007.9
20200809122909 59 0 0.0 0.0 0.00 0.00 0.00 47 1007.8
20200809122040 59 0 0.0 0.0 0.00 0.00 0.00 44 1007.9
20200809121229 59 0 0.0 2.0 0.00 0.00 0.00 45 1007.9
20200809120241 58 45 1.0 2.0 0.00 0.00 0.00 43 1007.7
20200809115346 58 0 0.0 0.0 0.00 0.00 0.00 47 1007.5
20200809114409 57 45 1.0 3.0 0.00 0.00 0.00 58 1007.5
20200809113459 57 45 1.0 3.0 0.00 0.00 0.00 67 1007.3
20200809112559 57 90 1.0 3.0 0.00 0.00 0.00 70 1007.4
20200809111604 57 0 0.0 2.0 0.00 0.00 0.00 67 1007.3
20200809110742 57 0 0.0 1.0 0.00 0.00 0.00 67 1007.1
20200809105859 57 0 0.0 0.0 0.00 0.00 0.00 69 1007.2
20200809105056 57 0 0.0 0.0 0.00 0.00 0.00 70 1007.2
20200809104104 57 0 0.0 1.0 0.00 0.00 0.00 68 1007.2
20200809103124 58 0 0.0 0.0 0.00 0.00 0.00 58 1007.3
20200809102219 58 0 0.0 1.0 0.00 0.00 0.00 56 1007.2
20200809101305 59 0 0.0 0.0 0.00 0.00 0.00 58 1007.2
20200809100349 59 0 0.0 0.0 0.00 0.00 0.00 52 1007.2
20200809095444 60 90 1.0 3.0 0.00 0.00 0.00 52 1007.3
20200809094500 61 0 0.0 0.0 0.00 0.00 0.00 51 1007.2
20200809093619 61 0 0.0 0.0 0.00 0.00 0.00 55 1007.2
20200809092811 63 0 0.0 0.0 0.00 0.00 0.00 46 1007.1
20200809091949 64 0 0.0 3.0 0.00 0.00 0.00 43 1007.2
20200809091049 65 0 0.0 2.0 0.00 0.00 0.00 37 1007.2
20200809090054 66 90 1.0 2.0 0.00 0.00 0.00 38 1007.3
20200809085239 66 68 1.0 3.0 0.00 0.00 0.00 34 1007.1
20200809084254 65 68 1.0 3.0 0.00 0.00 0.00 34 1007.1
20200809083347 65 270 1.0 3.0 0.00 0.00 0.00 29 1006.8
20200809082419 64 315 2.0 9.0 0.00 0.00 0.00 34 1006.7
20200809081551 64 270 1.0 3.0 0.00 0.00 0.00 29 1006.8
20200809080656 64 270 4.0 7.0 0.00 0.00 0.00 31 1006.8
20200809075706 65 270 5.0 8.0 0.00 0.00 0.00 33 1006.8
20200809074744 65 225 1.0 2.0 0.00 0.00 0.00 34 1006.9
20200809073759 65 225 1.0 2.0 0.00 0.00 0.00 33 1006.8
20200809072812 65 225 1.0 3.0 0.00 0.00 0.00 31 1006.9
20200809071824 65 315 2.0 5.0 0.00 0.00 0.00 34 1006.8
20200809070939 65 292 1.0 4.0 0.00 0.00 0.00 34 1006.7
20200809070011 66 0 0.0 2.0 0.00 0.00 0.00 33 1006.7
20200809065057 66 0 0.0 2.0 0.00 0.00 0.00 31 1006.7
20200809064214 66 0 0.0 2.0 0.00 0.00 0.00 30 1006.7
20200809063220 67 292 1.0 4.0 0.00 0.00 0.00 30 1006.7
20200809062329 67 270 2.0 4.0 0.00 0.00 0.00 30 1006.8
20200809061414 68 270 2.0 4.0 0.00 0.00 0.00 29 1006.7
20200809060509 68 292 1.0 3.0 0.00 0.00 0.00 29 1006.8
20200809055630 68 315 1.0 3.0 0.00 0.00 0.00 28 1006.8
20200809054647 68 292 2.0 4.0 0.00 0.00 0.00 31 1006.7
20200809053649 68 292 2.0 5.0 0.00 0.00 0.00 29 1006.8
20200809052739 69 292 1.0 4.0 0.00 0.00 0.00 29 1006.8
20200809051839 70 338 2.0 5.0 0.00 0.00 0.00 29 1006.8
20200809050914 70 292 2.0 5.0 0.00 0.00 0.00 28 1006.7
20200809045949 70 315 2.0 5.0 0.00 0.00 0.00 30 1006.7
20200809045112 70 315 2.0 6.0 0.00 0.00 0.00 30 1006.8
20200809044249 70 315 2.0 3.0 0.00 0.00 0.00 29 1006.7
20200809043334 69 315 2.0 4.0 0.00 0.00 0.00 30 1006.8
20200809042454 68 315 2.0 3.0 0.00 0.00 0.00 30 1006.8
20200809041612 68 292 2.0 4.0 0.00 0.00 0.00 33 1006.8
20200809040704 68 0 0.0 1.0 0.00 0.00 0.00 41 1006.8
20200809035727 68 292 1.0 3.0 0.00 0.00 0.00 33 1006.6
20200809034919 68 338 1.0 2.0 0.00 0.00 0.00 35 1006.5
20200809034100 68 270 1.0 2.0 0.00 0.00 0.00 37 1006.6
20200809033104 68 0 0.0 1.0 0.00 0.00 0.00 38 1006.3
20200809032233 69 0 0.0 0.0 0.00 0.00 0.00 40 1006.3
20200809031229 70 0 0.0 0.0 0.00 0.00 0.00 43 1006.1
20200809030351 71 0 0.0 0.0 0.00 0.00 0.00 44 1005.8
20200809025505 72 0 0.0 0.0 0.00 0.00 0.00 41 1005.8
20200809024642 73 0 0.0 0.0 0.00 0.00 0.00 41 1005.7
20200809023720 74 0 0.0 0.0 0.00 0.00 0.00 39 1005.6
20200809022755 75 0 0.0 0.0 0.00 0.00 0.00 36 1005.5
20200809021839 76 0 0.0 0.0 0.00 0.00 0.00 30 1005.4
20200809020949 77 0 0.0 1.0 0.00 0.00 0.00 32 1005.4
20200809020035 78 0 0.0 1.0 0.00 0.00 0.00 33 1005.4
20200809015051 79 0 0.0 1.0 0.00 0.00 0.00 33 1005.2
20200809014109 80 68 1.0 2.0 0.00 0.00 0.00 33 1005.2
20200809013237 82 0 0.0 2.0 0.00 0.00 0.00 30 1005.1
20200809012337 83 68 1.0 2.0 0.00 0.00 0.00 29 1005.2
20200809011455 84 0 0.0 2.0 0.00 0.00 0.00 27 1005.3
20200809010534 84 68 1.0 3.0 0.00 0.00 0.00 26 1005.2
20200809005654 85 68 1.0 3.0 0.00 0.00 0.00 23 1005.3
20200809004741 86 68 1.0 3.0 0.00 0.00 0.00 20 1005.3
20200809003920 86 68 2.0 5.0 0.00 0.00 0.00 21 1005.4
20200809003101 87 68 1.0 4.0 0.00 0.00 0.00 22 1005.4
20200809002249 87 68 3.0 6.0 0.00 0.00 0.00 18 1005.5
20200809001411 87 45 2.0 6.0 0.00 0.00 0.00 18 1005.6
20200809000521 88 68 2.0 4.0 0.00 0.00 0.00 18 1005.6
20200808235537 88 68 3.0 7.0 0.00 0.00 0.00 17 1005.5
20200808234704 89 68 2.0 6.0 0.00 0.00 0.00 17 1005.6
20200808233815 90 68 5.0 10.0 0.00 0.00 0.00 14 1005.7
20200808232949 90 90 4.0 7.0 0.00 0.00 0.00 15 1005.8
20200808232139 90 68 4.0 10.0 0.00 0.00 0.00 14 1005.8
20200808231154 90 90 3.0 7.0 0.00 0.00 0.00 14 1005.8
20200808230244 90 90 4.0 7.0 0.00 0.00 0.00 14 1005.8
20200808225326 90 112 3.0 5.0 0.00 0.00 0.00 13 1005.9
20200808224332 90 68 4.0 10.0 0.00 0.00 0.00 20 1006.0
20200808223337 91 68 4.0 10.0 0.00 0.00 0.00 13 1006.1
20200808222340 92 68 2.0 7.0 0.00 0.00 0.00 13 1006.1
20200808221523 92 45 3.0 11.0 0.00 0.00 0.00 14 1006.1
20200808221520 92 45 3.0 11.0 0.00 0.00 0.00 14 1006.1
20200808220557 92 68 3.0 10.0 0.00 0.00 0.00 16 1006.2
20200808215637 92 90 6.0 11.0 0.00 0.00 0.00 12 1006.2
20200808214709 92 68 4.0 10.0 0.00 0.00 0.00 15 1006.3
20200808213833 92 90 3.0 7.0 0.00 0.00 0.00 14 1006.2
20200808212900 92 68 6.0 11.0 0.00 0.00 0.00 14 1006.2
20200808211944 92 68 2.0 11.0 0.00 0.00 0.00 14 1006.3
20200808211134 91 90 5.0 13.0 0.00 0.00 0.00 16 1006.3
20200808210254 91 90 4.0 10.0 0.00 0.00 0.00 14 1006.3
20200808205359 92 90 2.0 6.0 0.00 0.00 0.00 14 1006.4
20200808204553 91 68 3.0 11.0 0.00 0.00 0.00 15 1006.4
20200808203611 91 68 4.0 12.0 0.00 0.00 0.00 11 1006.4
20200808202757 91 68 5.0 10.0 0.00 0.00 0.00 12 1006.4
20200808201915 91 90 5.0 12.0 0.00 0.00 0.00 13 1006.5
20200808201019 90 68 5.0 12.0 0.00 0.00 0.00 12 1006.4
20200808200130 90 68 4.0 10.0 0.00 0.00 0.00 14 1006.5
20200808195219 90 68 4.0 11.0 0.00 0.00 0.00 16 1006.5
20200808194404 91 45 5.0 11.0 0.00 0.00 0.00 15 1006.6
20200808193543 90 68 4.0 10.0 0.00 0.00 0.00 18 1006.5
20200808192549 91 45 6.0 14.0 0.00 0.00 0.00 16 1006.4
20200808191553 91 112 3.0 7.0 0.00 0.00 0.00 18 1006.5
20200808190606 90 112 4.0 9.0 0.00 0.00 0.00 13 1006.5
20200808185742 90 112 4.0 9.0 0.00 0.00 0.00 17 1006.6
20200808184849 90 135 2.0 5.0 0.00 0.00 0.00 12 1006.6
20200808183939 90 68 4.0 10.0 0.00 0.00 0.00 15 1006.7
20200808182953 90 90 2.0 5.0 0.00 0.00 0.00 18 1006.7
20200808182119 89 135 2.0 5.0 0.00 0.00 0.00 17 1006.8
20200808181300 89 158 2.0 5.0 0.00 0.00 0.00 24 1006.8
20200808180501 88 158 2.0 6.0 0.00 0.00 0.00 25 1006.8
20200808175509 88 112 2.0 5.0 0.00 0.00 0.00 29 1007.0
20200808174642 87 135 3.0 6.0 0.00 0.00 0.00 34 1007.1
20200808173642 84 112 4.0 6.0 0.00 0.00 0.00 33 1007.3
20200808172735 84 112 2.0 5.0 0.00 0.00 0.00 40 1007.6